PWSweather.com
Personal Weather Stations
Station Observations
SHAHALMS1
Eftra, Falkenberg, HA

EftraFalkenberg, HA

Lat: 56.85, Lon: 12.65

Elevation: 140

Station Type:

http://hem.passagen.se/risarp101

High Low Average
Temperature 36.5°F2.5°C 33.1°F0.6°C 34.4°F1.3°C
Dew Point 33.3°F0.7°C 29.5°F-1.4°C 31.1°F-0.5°C
Winds 13.4 mph 21.6 kmh Calm Calm 7.0 mph SW11.3 kmh SW
Wind Gusts 29.0 mph46.7 kmh -- 14.0 mph22.5 kmh
Humidity 90% 83% 88%
Pressure 29.92 in1013.2 mb 29.59 in1002.0 mb -
Precipitation 0.00 in0.0 mm - -
Hour Temp Dew Point Humidity Winds Wind Gusts Pressure Precip Precip Rate Daily Precip Total
12:00 AM 34.2°F1.2°C 29.5°F-1.4°C 83% 11.5 mph W18.5 kmh W 28.3 mph45.5 kmh 29.59 in1002.0 mb 0.00 in0.0 mm 0.00 in0.0 mm 0.00 in0.0 mm
12:15 AM 34.0°F1.1°C 29.7°F-1.3°C 84% 13.0 mph W20.9 kmh W 29.0 mph46.7 kmh 29.59 in1002.0 mb 0.00 in0.0 mm 0.00 in0.0 mm 0.00 in0.0 mm
12:30 AM 34.0°F1.1°C 29.9°F-1.2°C 85% 11.7 mph W18.8 kmh W 21.1 mph34.0 kmh 29.59 in1002.0 mb 0.00 in0.0 mm 0.00 in0.0 mm 0.00 in0.0 mm
12:45 AM 34.0°F1.1°C 30.2°F-1.0°C 86% 13.0 mph W20.9 kmh W 23.6 mph38.0 kmh 29.59 in1002.0 mb 0.00 in0.0 mm 0.00 in0.0 mm 0.00 in0.0 mm
01:00 AM 33.8°F1.0°C 30.1°F-1.1°C 86% 12.3 mph W19.8 kmh W 22.5 mph36.2 kmh 29.62 in1003.0 mb 0.00 in0.0 mm 0.00 in0.0 mm 0.00 in0.0 mm
01:15 AM 33.8°F1.0°C 30.1°F-1.1°C 86% 12.5 mph WSW20.1 kmh WSW 27.2 mph43.8 kmh 29.62 in1003.0 mb 0.00 in0.0 mm 0.00 in0.0 mm 0.00 in0.0 mm
01:30 AM 33.8°F1.0°C 30.1°F-1.1°C 86% 10.5 mph W16.9 kmh W 20.8 mph33.5 kmh 29.65 in1004.1 mb 0.00 in0.0 mm 0.00 in0.0 mm 0.00 in0.0 mm
01:45 AM 33.8°F1.0°C 30.3°F-0.9°C 87% 11.5 mph W18.5 kmh W 20.8 mph33.5 kmh 29.65 in1004.1 mb 0.00 in0.0 mm 0.00 in0.0 mm 0.00 in0.0 mm
02:00 AM 34.0°F1.1°C 30.5°F-0.8°C 87% 13.4 mph W21.6 kmh W 24.7 mph39.8 kmh 29.62 in1003.0 mb 0.00 in0.0 mm 0.00 in0.0 mm 0.00 in0.0 mm
02:15 AM 33.8°F1.0°C 30.1°F-1.1°C 86% 10.9 mph W17.5 kmh W 19.7 mph31.7 kmh 29.59 in1002.0 mb 0.00 in0.0 mm 0.00 in0.0 mm 0.00 in0.0 mm
02:30 AM 33.8°F1.0°C 30.3°F-0.9°C 87% 12.9 mph W20.8 kmh W 22.5 mph36.2 kmh 29.62 in1003.0 mb 0.00 in0.0 mm 0.00 in0.0 mm 0.00 in0.0 mm
02:45 AM 33.8°F1.0°C 30.1°F-1.1°C 86% 10.2 mph W16.4 kmh W 19.7 mph31.7 kmh 29.62 in1003.0 mb 0.00 in0.0 mm 0.00 in0.0 mm 0.00 in0.0 mm
03:00 AM 33.6°F0.9°C 29.9°F-1.2°C 86% 12.0 mph W19.3 kmh W 21.1 mph34.0 kmh 29.62 in1003.0 mb 0.00 in0.0 mm 0.00 in0.0 mm 0.00 in0.0 mm
03:15 AM 33.8°F1.0°C 30.1°F-1.1°C 86% 11.9 mph W19.2 kmh W 20.8 mph33.5 kmh 29.62 in1003.0 mb 0.00 in0.0 mm 0.00 in0.0 mm 0.00 in0.0 mm
03:30 AM 33.6°F0.9°C 29.9°F-1.2°C 86% 10.3 mph W16.6 kmh W 20.0 mph32.2 kmh 29.62 in1003.0 mb 0.00 in0.0 mm 0.00 in0.0 mm 0.00 in0.0 mm
03:45 AM 33.4°F0.8°C 29.7°F-1.3°C 86% 10.1 mph W16.3 kmh W 17.5 mph28.2 kmh 29.65 in1004.1 mb 0.00 in0.0 mm 0.00 in0.0 mm 0.00 in0.0 mm
04:00 AM 33.4°F0.8°C 30.0°F-1.1°C 87% 9.9 mph W15.9 kmh W 17.5 mph28.2 kmh 29.68 in1005.1 mb 0.00 in0.0 mm 0.00 in0.0 mm 0.00 in0.0 mm
04:15 AM 33.4°F0.8°C 30.0°F-1.1°C 87% 9.7 mph W15.6 kmh W 21.1 mph34.0 kmh 29.65 in1004.1 mb 0.00 in0.0 mm 0.00 in0.0 mm 0.00 in0.0 mm
04:30 AM 33.4°F0.8°C 30.3°F-0.9°C 88% 9.6 mph W15.4 kmh W 17.2 mph27.7 kmh 29.68 in1005.1 mb 0.00 in0.0 mm 0.00 in0.0 mm 0.00 in0.0 mm
04:45 AM 33.4°F0.8°C 30.3°F-0.9°C 88% 10.7 mph W17.2 kmh W 19.3 mph31.1 kmh 29.68 in1005.1 mb 0.00 in0.0 mm 0.00 in0.0 mm 0.00 in0.0 mm
05:00 AM 33.4°F0.8°C 30.3°F-0.9°C 88% 9.8 mph WSW15.8 kmh WSW 17.9 mph28.8 kmh 29.68 in1005.1 mb 0.00 in0.0 mm 0.00 in0.0 mm 0.00 in0.0 mm
05:15 AM 33.6°F0.9°C 30.4°F-0.9°C 88% 10.2 mph W16.4 kmh W 19.7 mph31.7 kmh 29.68 in1005.1 mb 0.00 in0.0 mm 0.00 in0.0 mm 0.00 in0.0 mm
05:30 AM 33.3°F0.7°C 30.1°F-1.1°C 88% 8.3 mph W13.4 kmh W 16.5 mph26.6 kmh 29.68 in1005.1 mb 0.00 in0.0 mm 0.00 in0.0 mm 0.00 in0.0 mm
05:45 AM 33.4°F0.8°C 30.3°F-0.9°C 88% 9.3 mph WSW15.0 kmh WSW 17.2 mph27.7 kmh 29.65 in1004.1 mb 0.00 in0.0 mm 0.00 in0.0 mm 0.00 in0.0 mm
06:01 AM 33.3°F0.7°C 30.1°F-1.1°C 88% 7.8 mph W12.6 kmh W 15.7 mph25.3 kmh 29.65 in1004.1 mb 0.00 in0.0 mm 0.00 in0.0 mm 0.00 in0.0 mm
06:15 AM 33.3°F0.7°C 30.1°F-1.1°C 88% 7.5 mph SW12.1 kmh SW 12.5 mph20.1 kmh 29.68 in1005.1 mb 0.00 in0.0 mm 0.00 in0.0 mm 0.00 in0.0 mm
06:30 AM 33.1°F0.6°C 29.9°F-1.2°C 88% 7.9 mph WSW12.7 kmh WSW 15.4 mph24.8 kmh 29.68 in1005.1 mb 0.00 in0.0 mm 0.00 in0.0 mm 0.00 in0.0 mm
06:45 AM 33.1°F0.6°C 29.9°F-1.2°C 88% 7.5 mph WSW12.1 kmh WSW 12.9 mph20.8 kmh 29.68 in1005.1 mb 0.00 in0.0 mm 0.00 in0.0 mm 0.00 in0.0 mm
07:00 AM 33.1°F0.6°C 29.9°F-1.2°C 88% 8.4 mph W13.5 kmh W 16.5 mph26.6 kmh 29.71 in1006.1 mb 0.00 in0.0 mm 0.00 in0.0 mm 0.00 in0.0 mm
07:15 AM 33.4°F0.8°C 30.5°F-0.8°C 89% 9.0 mph W14.5 kmh W 17.9 mph28.8 kmh 29.71 in1006.1 mb 0.00 in0.0 mm 0.00 in0.0 mm 0.00 in0.0 mm
07:30 AM 33.4°F0.8°C 30.5°F-0.8°C 89% 8.3 mph W13.4 kmh W 19.7 mph31.7 kmh 29.71 in1006.1 mb 0.00 in0.0 mm 0.00 in0.0 mm 0.00 in0.0 mm
07:45 AM 33.3°F0.7°C 30.4°F-0.9°C 89% 8.8 mph W14.2 kmh W 17.2 mph27.7 kmh 29.71 in1006.1 mb 0.00 in0.0 mm 0.00 in0.0 mm 0.00 in0.0 mm
08:00 AM 33.3°F0.7°C 30.4°F-0.9°C 89% 8.3 mph W13.4 kmh W 15.7 mph25.3 kmh 29.71 in1006.1 mb 0.00 in0.0 mm 0.00 in0.0 mm 0.00 in0.0 mm
08:15 AM 33.4°F0.8°C 30.5°F-0.8°C 89% 7.2 mph WSW11.6 kmh WSW 13.6 mph21.9 kmh 29.71 in1006.1 mb 0.00 in0.0 mm 0.00 in0.0 mm 0.00 in0.0 mm
08:30 AM 34.0°F1.1°C 31.4°F-0.3°C 90% 8.1 mph SW13.0 kmh SW 16.1 mph25.9 kmh 29.71 in1006.1 mb 0.00 in0.0 mm 0.00 in0.0 mm 0.00 in0.0 mm
08:45 AM 34.9°F1.6°C 32.2°F0.1°C 90% 7.3 mph WSW11.7 kmh WSW 16.5 mph26.6 kmh 29.74 in1007.1 mb 0.00 in0.0 mm 0.00 in0.0 mm 0.00 in0.0 mm
09:00 AM 35.2°F1.8°C 32.6°F0.3°C 90% 8.5 mph WSW13.7 kmh WSW 15.4 mph24.8 kmh 29.74 in1007.1 mb 0.00 in0.0 mm 0.00 in0.0 mm 0.00 in0.0 mm
09:15 AM 35.2°F1.8°C 32.3°F0.2°C 89% 9.1 mph WSW14.6 kmh WSW 20.0 mph32.2 kmh 29.74 in1007.1 mb 0.00 in0.0 mm 0.00 in0.0 mm 0.00 in0.0 mm
09:30 AM 35.4°F1.9°C 32.5°F0.3°C 89% 6.8 mph WSW10.9 kmh WSW 12.9 mph20.8 kmh 29.71 in1006.1 mb 0.00 in0.0 mm 0.00 in0.0 mm 0.00 in0.0 mm
09:45 AM 35.6°F2.0°C 32.7°F0.4°C 89% 8.0 mph WSW12.9 kmh WSW 15.0 mph24.1 kmh 29.71 in1006.1 mb 0.00 in0.0 mm 0.00 in0.0 mm 0.00 in0.0 mm
10:00 AM 35.6°F2.0°C 32.4°F0.2°C 88% 8.4 mph W13.5 kmh W 13.6 mph21.9 kmh 29.74 in1007.1 mb 0.00 in0.0 mm 0.00 in0.0 mm 0.00 in0.0 mm
10:15 AM 35.8°F2.1°C 32.6°F0.3°C 88% 6.9 mph WSW11.1 kmh WSW 11.8 mph19.0 kmh 29.71 in1006.1 mb 0.00 in0.0 mm 0.00 in0.0 mm 0.00 in0.0 mm
10:30 AM 36.1°F2.3°C 32.9°F0.5°C 88% 6.1 mph WSW9.8 kmh WSW 12.9 mph20.8 kmh 29.74 in1007.1 mb 0.00 in0.0 mm 0.00 in0.0 mm 0.00 in0.0 mm
10:45 AM 36.0°F2.2°C 32.5°F0.3°C 87% 5.9 mph SW9.5 kmh SW 14.0 mph22.5 kmh 29.74 in1007.1 mb 0.00 in0.0 mm 0.00 in0.0 mm 0.00 in0.0 mm
11:00 AM 35.8°F2.1°C 32.3°F0.2°C 87% 8.2 mph SW13.2 kmh SW 15.4 mph24.8 kmh 29.74 in1007.1 mb 0.00 in0.0 mm 0.00 in0.0 mm 0.00 in0.0 mm
11:15 AM 36.0°F2.2°C 32.5°F0.3°C 87% 9.0 mph SW14.5 kmh SW 16.5 mph26.6 kmh 29.74 in1007.1 mb 0.00 in0.0 mm 0.00 in0.0 mm 0.00 in0.0 mm
11:30 AM 35.8°F2.1°C 32.3°F0.2°C 87% 7.9 mph S12.7 kmh S 15.4 mph24.8 kmh 29.74 in1007.1 mb 0.00 in0.0 mm 0.00 in0.0 mm 0.00 in0.0 mm
11:45 AM 36.1°F2.3°C 32.9°F0.5°C 88% 7.7 mph SSW12.4 kmh SSW 15.0 mph24.1 kmh 29.77 in1008.1 mb 0.00 in0.0 mm 0.00 in0.0 mm 0.00 in0.0 mm
12:00 PM 36.5°F2.5°C 33.3°F0.7°C 88% 8.1 mph SW13.0 kmh SW 16.1 mph25.9 kmh 29.77 in1008.1 mb 0.00 in0.0 mm 0.00 in0.0 mm 0.00 in0.0 mm
12:15 PM 36.5°F2.5°C 33.0°F0.6°C 87% 5.9 mph WSW9.5 kmh WSW 12.9 mph20.8 kmh 29.77 in1008.1 mb 0.00 in0.0 mm 0.00 in0.0 mm 0.00 in0.0 mm
12:30 PM 36.1°F2.3°C 32.4°F0.2°C 86% 8.6 mph WSW13.8 kmh WSW 20.8 mph33.5 kmh 29.77 in1008.1 mb 0.00 in0.0 mm 0.00 in0.0 mm 0.00 in0.0 mm
12:45 PM 35.8°F2.1°C 32.0°F0.0°C 86% 9.1 mph WSW14.6 kmh WSW 16.5 mph26.6 kmh 29.77 in1008.1 mb 0.00 in0.0 mm 0.00 in0.0 mm 0.00 in0.0 mm
01:00 PM 35.6°F2.0°C 31.8°F-0.1°C 86% 6.8 mph SSW10.9 kmh SSW 16.5 mph26.6 kmh 29.77 in1008.1 mb 0.00 in0.0 mm 0.00 in0.0 mm 0.00 in0.0 mm
01:15 PM 35.6°F2.0°C 32.1°F0.1°C 87% 6.1 mph S9.8 kmh S 12.5 mph20.1 kmh 29.80 in1009.1 mb 0.00 in0.0 mm 0.00 in0.0 mm 0.00 in0.0 mm
01:30 PM 35.8°F2.1°C 32.6°F0.3°C 88% 6.4 mph SW10.3 kmh SW 13.6 mph21.9 kmh 29.80 in1009.1 mb 0.00 in0.0 mm 0.00 in0.0 mm 0.00 in0.0 mm
01:45 PM 35.8°F2.1°C 32.6°F0.3°C 88% 6.3 mph SSW10.1 kmh SSW 21.5 mph34.6 kmh 29.80 in1009.1 mb 0.00 in0.0 mm 0.00 in0.0 mm 0.00 in0.0 mm
02:00 PM 36.0°F2.2°C 32.8°F0.4°C 88% 8.1 mph WSW13.0 kmh WSW 16.1 mph25.9 kmh 29.77 in1008.1 mb 0.00 in0.0 mm 0.00 in0.0 mm 0.00 in0.0 mm
02:15 PM 36.0°F2.2°C 32.8°F0.4°C 88% 9.2 mph WSW14.8 kmh WSW 18.3 mph29.5 kmh 29.80 in1009.1 mb 0.00 in0.0 mm 0.00 in0.0 mm 0.00 in0.0 mm
02:30 PM 35.6°F2.0°C 32.1°F0.1°C 87% 9.9 mph WSW15.9 kmh WSW 20.4 mph32.8 kmh 29.80 in1009.1 mb 0.00 in0.0 mm 0.00 in0.0 mm 0.00 in0.0 mm
02:45 PM 35.6°F2.0°C 32.1°F0.1°C 87% 7.6 mph SW12.2 kmh SW 15.4 mph24.8 kmh 29.80 in1009.1 mb 0.00 in0.0 mm 0.00 in0.0 mm 0.00 in0.0 mm
03:00 PM 35.4°F1.9°C 31.6°F-0.2°C 86% 6.8 mph W10.9 kmh W 17.5 mph28.2 kmh 29.80 in1009.1 mb 0.00 in0.0 mm 0.00 in0.0 mm 0.00 in0.0 mm
03:15 PM 35.4°F1.9°C 31.6°F-0.2°C 86% 7.1 mph WSW11.4 kmh WSW 15.4 mph24.8 kmh 29.83 in1010.2 mb 0.00 in0.0 mm 0.00 in0.0 mm 0.00 in0.0 mm
03:30 PM 35.4°F1.9°C 31.9°F-0.1°C 87% 5.1 mph SSW8.2 kmh SSW 11.5 mph18.5 kmh 29.80 in1009.1 mb 0.00 in0.0 mm 0.00 in0.0 mm 0.00 in0.0 mm
03:45 PM 35.2°F1.8°C 31.8°F-0.1°C 87% 6.3 mph SW10.1 kmh SW 11.1 mph17.9 kmh 29.77 in1008.1 mb 0.00 in0.0 mm 0.00 in0.0 mm 0.00 in0.0 mm
04:00 PM 35.2°F1.8°C 31.8°F-0.1°C 87% 5.3 mph SSW8.5 kmh SSW 12.5 mph20.1 kmh 29.80 in1009.1 mb 0.00 in0.0 mm 0.00 in0.0 mm 0.00 in0.0 mm
04:15 PM 35.2°F1.8°C 31.8°F-0.1°C 87% 5.0 mph SW8.0 kmh SW 9.7 mph15.6 kmh 29.80 in1009.1 mb 0.00 in0.0 mm 0.00 in0.0 mm 0.00 in0.0 mm
04:30 PM 35.2°F1.8°C 31.8°F-0.1°C 87% 4.1 mph SSW6.6 kmh SSW 10.7 mph17.2 kmh 29.83 in1010.2 mb 0.00 in0.0 mm 0.00 in0.0 mm 0.00 in0.0 mm
04:45 PM 35.2°F1.8°C 31.8°F-0.1°C 87% 3.8 mph S6.1 kmh S 9.7 mph15.6 kmh 29.83 in1010.2 mb 0.00 in0.0 mm 0.00 in0.0 mm 0.00 in0.0 mm
05:00 PM 35.1°F1.7°C 31.6°F-0.2°C 87% 4.9 mph S7.9 kmh S 11.5 mph18.5 kmh 29.83 in1010.2 mb 0.00 in0.0 mm 0.00 in0.0 mm 0.00 in0.0 mm
05:15 PM 35.1°F1.7°C 31.6°F-0.2°C 87% 4.7 mph S7.6 kmh S 10.4 mph16.7 kmh 29.83 in1010.2 mb 0.00 in0.0 mm 0.00 in0.0 mm 0.00 in0.0 mm
05:30 PM 34.9°F1.6°C 31.4°F-0.3°C 87% 5.7 mph SSW9.2 kmh SSW 11.1 mph17.9 kmh 29.83 in1010.2 mb 0.00 in0.0 mm 0.00 in0.0 mm 0.00 in0.0 mm
05:45 PM 34.7°F1.5°C 31.2°F-0.4°C 87% 5.7 mph S9.2 kmh S 12.5 mph20.1 kmh 29.83 in1010.2 mb 0.00 in0.0 mm 0.00 in0.0 mm 0.00 in0.0 mm
06:00 PM 34.3°F1.3°C 30.9°F-0.6°C 87% 3.7 mph S6.0 kmh S 10.7 mph17.2 kmh 29.86 in1011.2 mb 0.00 in0.0 mm 0.00 in0.0 mm 0.00 in0.0 mm
06:15 PM 34.2°F1.2°C 31.0°F-0.6°C 88% 3.2 mph S5.1 kmh S 10.4 mph16.7 kmh 29.83 in1010.2 mb 0.00 in0.0 mm 0.00 in0.0 mm 0.00 in0.0 mm
06:30 PM 33.8°F1.0°C 30.6°F-0.8°C 88% 2.4 mph S3.9 kmh S 6.4 mph10.3 kmh 29.86 in1011.2 mb 0.00 in0.0 mm 0.00 in0.0 mm 0.00 in0.0 mm
06:45 PM 33.8°F1.0°C 30.6°F-0.8°C 88% 2.9 mph S4.7 kmh S 6.8 mph10.9 kmh 29.86 in1011.2 mb 0.00 in0.0 mm 0.00 in0.0 mm 0.00 in0.0 mm
07:00 PM 33.8°F1.0°C 30.9°F-0.6°C 89% 1.5 mph SSE2.4 kmh SSE 6.4 mph10.3 kmh 29.83 in1010.2 mb 0.00 in0.0 mm 0.00 in0.0 mm 0.00 in0.0 mm
07:15 PM 33.8°F1.0°C 30.9°F-0.6°C 89% 0.2 mph S0.3 kmh S 3.2 mph5.1 kmh 29.83 in1010.2 mb 0.00 in0.0 mm 0.00 in0.0 mm 0.00 in0.0 mm
07:30 PM 33.8°F1.0°C 30.9°F-0.6°C 89% Calm Calm -- 29.86 in1011.2 mb 0.00 in0.0 mm 0.00 in0.0 mm 0.00 in0.0 mm
07:45 PM 34.0°F1.1°C 31.1°F-0.5°C 89% 0.5 mph S0.8 kmh S 6.1 mph9.8 kmh 29.86 in1011.2 mb 0.00 in0.0 mm 0.00 in0.0 mm 0.00 in0.0 mm
08:00 PM 34.0°F1.1°C 31.1°F-0.5°C 89% 0.8 mph S1.3 kmh S 5.7 mph9.2 kmh 29.86 in1011.2 mb 0.00 in0.0 mm 0.00 in0.0 mm 0.00 in0.0 mm
08:15 PM 33.8°F1.0°C 30.9°F-0.6°C 89% Calm Calm 1.4 mph2.3 kmh 29.89 in1012.2 mb 0.00 in0.0 mm 0.00 in0.0 mm 0.00 in0.0 mm
08:30 PM 34.0°F1.1°C 31.1°F-0.5°C 89% 1.6 mph S2.6 kmh S 10.4 mph16.7 kmh 29.89 in1012.2 mb 0.00 in0.0 mm 0.00 in0.0 mm 0.00 in0.0 mm
08:45 PM 33.8°F1.0°C 30.9°F-0.6°C 89% 4.0 mph S6.4 kmh S 8.9 mph14.3 kmh 29.89 in1012.2 mb 0.00 in0.0 mm 0.00 in0.0 mm 0.00 in0.0 mm
09:00 PM 33.8°F1.0°C 30.9°F-0.6°C 89% 3.2 mph SSW5.1 kmh SSW 9.7 mph15.6 kmh 29.89 in1012.2 mb 0.00 in0.0 mm 0.00 in0.0 mm 0.00 in0.0 mm
09:15 PM 33.6°F0.9°C 30.7°F-0.7°C 89% 2.7 mph S4.3 kmh S 11.8 mph19.0 kmh 29.89 in1012.2 mb 0.00 in0.0 mm 0.00 in0.0 mm 0.00 in0.0 mm
09:30 PM 33.6°F0.9°C 30.7°F-0.7°C 89% 3.2 mph WSW5.1 kmh WSW 8.9 mph14.3 kmh 29.92 in1013.2 mb 0.00 in0.0 mm 0.00 in0.0 mm 0.00 in0.0 mm
09:45 PM 33.4°F0.8°C 30.3°F-0.9°C 88% 2.2 mph S3.5 kmh S 8.9 mph14.3 kmh 29.92 in1013.2 mb 0.00 in0.0 mm 0.00 in0.0 mm 0.00 in0.0 mm
10:01 PM 33.4°F0.8°C 30.3°F-0.9°C 88% 1.7 mph S2.7 kmh S 6.8 mph10.9 kmh 29.92 in1013.2 mb 0.00 in0.0 mm 0.00 in0.0 mm 0.00 in0.0 mm
10:15 PM 33.4°F0.8°C 30.3°F-0.9°C 88% 0.2 mph S0.3 kmh S 3.9 mph6.3 kmh 29.92 in1013.2 mb 0.00 in0.0 mm 0.00 in0.0 mm 0.00 in0.0 mm
10:30 PM 33.3°F0.7°C 30.1°F-1.1°C 88% 0.5 mph S0.8 kmh S 4.7 mph7.6 kmh 29.89 in1012.2 mb 0.00 in0.0 mm 0.00 in0.0 mm 0.00 in0.0 mm
10:45 PM 33.3°F0.7°C 30.1°F-1.1°C 88% 0.4 mph S0.6 kmh S 4.3 mph6.9 kmh 29.89 in1012.2 mb 0.00 in0.0 mm 0.00 in0.0 mm 0.00 in0.0 mm
11:00 PM 33.3°F0.7°C 30.1°F-1.1°C 88% 1.0 mph S1.6 kmh S 5.4 mph8.7 kmh 29.89 in1012.2 mb 0.00 in0.0 mm 0.00 in0.0 mm 0.00 in0.0 mm
11:15 PM 33.3°F0.7°C 30.1°F-1.1°C 88% 0.4 mph SE0.6 kmh SE 4.3 mph6.9 kmh 29.89 in1012.2 mb 0.00 in0.0 mm 0.00 in0.0 mm 0.00 in0.0 mm
11:30 PM 33.3°F0.7°C 30.1°F-1.1°C 88% 0.7 mph SE1.1 kmh SE 5.4 mph8.7 kmh 29.92 in1013.2 mb 0.00 in0.0 mm 0.00 in0.0 mm 0.00 in0.0 mm
11:45 PM 33.3°F0.7°C 30.1°F-1.1°C 88% 0.4 mph S0.6 kmh S 3.9 mph6.3 kmh 29.92 in1013.2 mb 0.00 in0.0 mm 0.00 in0.0 mm 0.00 in0.0 mm